Time;durP1;ratioP1;P1;durP2;ratioP2;P2;SDS_P1;SDS_P2;PMS_P1;PMS_P2;Temp;Humidity;BMP_temperature;BMP_pressure;BME280_temperature;BME280_humidity;BME280_pressure;Samples;Min_cycle;Max_cycle;Signal;HPM_P1;HPM_P2
2021/03/03 00:01:13;;;;;;;12.07;2.70;;;22.40;95.50;;;;;;5050734;28;20180;-70
2021/03/03 00:03:40;;;;;;;7.40;2.23;;;22.50;95.50;;;;;;5051482;28;20643;-68
2021/03/03 00:06:08;;;;;;;11.60;2.53;;;22.60;95.00;;;;;;5050956;28;20198;-69
2021/03/03 00:08:35;;;;;;;10.87;1.97;;;22.40;95.20;;;;;;5039276;28;20184;-68
2021/03/03 00:11:03;;;;;;;10.97;2.57;;;22.10;95.60;;;;;;5055419;28;20267;-68
2021/03/03 00:13:30;;;;;;;13.37;2.60;;;21.70;96.20;;;;;;5055340;28;20266;-68
2021/03/03 00:15:57;;;;;;;15.47;2.37;;;21.70;96.20;;;;;;5055514;28;20216;-68
2021/03/03 00:18:25;;;;;;;11.10;2.43;;;21.60;96.40;;;;;;5054929;28;20234;-69
2021/03/03 00:20:52;;;;;;;8.10;2.10;;;21.90;96.00;;;;;;5054602;28;20493;-70
2021/03/03 00:23:20;;;;;;;11.57;2.33;;;22.10;95.90;;;;;;5055339;28;20268;-69
2021/03/03 00:25:47;;;;;;;9.67;2.37;;;22.20;95.80;;;;;;5055024;28;20203;-69
2021/03/03 00:28:15;;;;;;;16.00;2.70;;;22.10;95.10;;;;;;5055026;28;20236;-71
2021/03/03 00:30:42;;;;;;;12.10;2.37;;;22.50;95.30;;;;;;5055067;28;20180;-68
2021/03/03 00:33:09;;;;;;;11.73;2.57;;;23.00;94.30;;;;;;5055438;28;20638;-67
2021/03/03 00:35:39;;;;;;;10.60;2.70;;;22.80;94.30;;;;;;5034938;28;20204;-69
2021/03/03 00:38:07;;;;;;;12.10;2.00;;;23.10;93.90;;;;;;5046077;28;20227;-68
2021/03/03 00:40:34;;;;;;;14.50;2.47;;;23.20;93.20;;;;;;5051688;28;20282;-68
2021/03/03 00:43:02;;;;;;;10.87;2.50;;;23.10;93.30;;;;;;5050716;28;20220;-69
2021/03/03 00:45:29;;;;;;;7.73;1.87;;;22.70;93.50;;;;;;5051161;28;20663;-67
2021/03/03 00:47:57;;;;;;;7.47;2.07;;;22.80;93.80;;;;;;5036783;28;20177;-69
2021/03/03 00:50:24;;;;;;;11.50;2.53;;;22.40;93.80;;;;;;5046071;28;20187;-66
2021/03/03 00:52:51;;;;;;;14.80;2.53;;;22.40;93.70;;;;;;5051359;28;20179;-68
2021/03/03 00:55:19;;;;;;;15.93;2.53;;;22.60;93.60;;;;;;5054522;28;20184;-70
2021/03/03 00:57:46;;;;;;;14.63;2.27;;;22.70;93.50;;;;;;5054704;28;20172;-69
2021/03/03 01:00:14;;;;;;;6.93;2.00;;;22.90;92.90;;;;;;5053918;28;20554;-73
2021/03/03 01:02:41;;;;;;;13.23;2.07;;;22.70;92.80;;;;;;5053912;28;20743;-70
2021/03/03 01:05:09;;;;;;;11.40;2.67;;;22.70;92.90;;;;;;5056344;28;20683;-69
2021/03/03 01:07:37;;;;;;;10.47;2.10;;;22.60;92.90;;;;;;5068584;28;20207;-69
2021/03/03 01:10:04;;;;;;;14.63;2.10;;;22.90;92.90;;;;;;5047099;28;20176;-68
2021/03/03 01:12:32;;;;;;;12.63;3.20;;;22.80;92.80;;;;;;5053871;28;20188;-67
2021/03/03 01:14:59;;;;;;;13.67;2.37;;;22.90;92.80;;;;;;5054448;28;20212;-67
2021/03/03 01:17:26;;;;;;;8.17;1.80;;;22.70;92.90;;;;;;5053283;28;20674;-68
2021/03/03 01:19:54;;;;;;;9.77;2.13;;;22.80;92.70;;;;;;5051018;28;20210;-69
2021/03/03 01:22:21;;;;;;;16.03;2.23;;;22.60;92.90;;;;;;5053818;28;20662;-68
2021/03/03 01:24:48;;;;;;;12.33;2.20;;;22.60;92.90;;;;;;5054550;28;20180;-70
2021/03/03 01:27:16;;;;;;;9.23;1.53;;;23.10;92.50;;;;;;5054555;28;20714;-68
2021/03/03 01:29:43;;;;;;;11.87;2.60;;;23.20;92.10;;;;;;5053765;28;20184;-69
2021/03/03 01:32:10;;;;;;;14.47;2.43;;;23.60;91.80;;;;;;5054683;28;20214;-69
2021/03/03 01:34:38;;;;;;;10.83;2.63;;;23.50;92.10;;;;;;5054141;28;20186;-69
2021/03/03 01:37:05;;;;;;;11.27;2.40;;;23.60;91.80;;;;;;5054144;28;20176;-69
2021/03/03 01:39:33;;;;;;;11.23;1.97;;;23.80;91.30;;;;;;5054409;28;20537;-70
2021/03/03 01:42:00;;;;;;;8.53;2.10;;;23.90;91.00;;;;;;5054222;28;20207;-69
2021/03/03 01:44:27;;;;;;;13.17;2.03;;;23.80;90.40;;;;;;5054443;28;20214;-69
2021/03/03 01:46:55;;;;;;;9.57;2.33;;;23.50;91.60;;;;;;5054116;28;20230;-70
2021/03/03 01:49:23;;;;;;;10.53;1.83;;;23.10;91.70;;;;;;5053370;28;20191;-69
2021/03/03 01:51:51;;;;;;;19.20;2.03;;;22.90;92.40;;;;;;5053004;28;20180;-69
2021/03/03 01:54:18;;;;;;;9.57;2.13;;;23.10;92.50;;;;;;5051285;28;20180;-70
2021/03/03 01:56:45;;;;;;;12.03;2.00;;;23.10;92.30;;;;;;5053589;28;20627;-69
2021/03/03 01:59:13;;;;;;;8.70;1.90;;;23.00;92.40;;;;;;5054034;28;20220;-70
2021/03/03 02:01:40;;;;;;;12.80;2.43;;;22.90;92.50;;;;;;5054371;28;20198;-69
2021/03/03 02:04:08;;;;;;;6.90;1.97;;;22.90;92.40;;;;;;5053902;28;20539;-68
2021/03/03 02:06:57;;;;;;;11.27;2.43;;;23.10;92.20;;;;;;5053730;28;20203;-69
2021/03/03 02:09:37;;;;;;;12.77;2.40;;;23.20;92.50;;;;;;5053746;28;20187;-68
2021/03/03 02:12:21;;;;;;;10.60;2.10;;;23.30;92.30;;;;;;5053832;28;20545;-69
2021/03/03 02:14:53;;;;;;;11.20;2.00;;;23.10;92.30;;;;;;5054006;28;20639;-72
2021/03/03 02:17:23;;;;;;;9.17;1.83;;;22.70;92.30;;;;;;5053611;28;20210;-68
2021/03/03 02:19:52;;;;;;;10.87;2.00;;;22.60;92.60;;;;;;5052290;28;20215;-70
2021/03/03 02:22:54;;;;;;;13.93;2.17;;;22.50;93.20;;;;;;5053826;28;20768;-69
2021/03/03 02:25:33;;;;;;;10.50;1.90;;;22.60;93.30;;;;;;5053863;28;20544;-71
2021/03/03 02:28:06;;;;;;;12.13;1.83;;;23.00;92.90;;;;;;5053815;28;20231;-68
2021/03/03 02:30:37;;;;;;;10.27;2.00;;;23.10;92.40;;;;;;5053002;28;20176;-71
2021/03/03 02:33:04;;;;;;;12.63;2.17;;;23.30;91.80;;;;;;5053734;28;20356;-70
2021/03/03 02:35:33;;;;;;;6.40;2.00;;;23.30;92.00;;;;;;5053599;28;20211;-69
2021/03/03 02:38:01;;;;;;;8.57;1.93;;;23.20;92.60;;;;;;5053696;28;20180;-70
2021/03/03 02:40:31;;;;;;;12.70;1.97;;;23.40;91.90;;;;;;5053549;28;20184;-70
2021/03/03 02:43:01;;;;;;;13.60;2.40;;;23.80;91.70;;;;;;5047042;28;20208;-70
2021/03/03 02:45:29;;;;;;;10.10;1.83;;;23.80;91.30;;;;;;5054053;28;20179;-71
2021/03/03 02:47:59;;;;;;;9.73;2.13;;;23.90;91.30;;;;;;5052331;28;20585;-71
2021/03/03 02:50:26;;;;;;;13.10;2.40;;;23.90;90.50;;;;;;5053271;28;20200;-70
2021/03/03 02:52:55;;;;;;;10.60;2.17;;;24.20;90.60;;;;;;5053430;28;20191;-69
2021/03/03 02:55:25;;;;;;;8.97;2.00;;;24.00;90.00;;;;;;5053002;28;20237;-68
2021/03/03 02:57:56;;;;;;;8.33;2.20;;;23.90;90.70;;;;;;5053132;28;20172;-71
2021/03/03 03:00:30;;;;;;;5.87;1.70;;;23.90;90.50;;;;;;5052202;28;20602;-71
2021/03/03 03:03:03;;;;;;;11.87;1.80;;;24.30;90.60;;;;;;5052295;28;20215;-71
2021/03/03 03:05:34;;;;;;;9.93;1.63;;;24.70;89.00;;;;;;5052431;28;20183;-72
2021/03/03 03:08:03;;;;;;;10.50;2.03;;;25.00;86.90;;;;;;5052617;28;20195;-71
2021/03/03 03:10:32;;;;;;;5.63;1.80;;;25.40;86.50;;;;;;5052410;28;20660;-71
2021/03/03 03:13:00;;;;;;;11.83;1.93;;;25.60;84.80;;;;;;5052396;28;20669;-70
2021/03/03 03:15:31;;;;;;;5.27;1.63;;;25.70;85.40;;;;;;5052617;28;20194;-71
2021/03/03 03:18:21;;;;;;;8.20;1.83;;;26.10;83.90;;;;;;5049955;28;20222;-70
2021/03/03 03:20:51;;;;;;;7.97;1.70;;;26.60;83.10;;;;;;5050056;28;20184;-71
2021/03/03 03:23:21;;;;;;;7.97;1.67;;;26.80;82.40;;;;;;5050215;28;20755;-71
2021/03/03 03:25:50;;;;;;;7.10;2.30;;;27.30;81.80;;;;;;5052157;28;20653;-71
2021/03/03 03:28:18;;;;;;;7.13;1.70;;;26.90;80.20;;;;;;5052113;28;20251;-71
2021/03/03 03:30:45;;;;;;;2.63;1.40;;;26.90;79.70;;;;;;5052144;28;20179;-71
2021/03/03 03:33:13;;;;;;;11.90;1.80;;;27.10;79.10;;;;;;5052198;28;20187;-71
2021/03/03 03:35:41;;;;;;;8.30;2.00;;;27.40;79.70;;;;;;5051038;28;20176;-70
2021/03/03 03:38:09;;;;;;;9.73;2.40;;;27.60;78.50;;;;;;5051622;28;20183;-71
2021/03/03 03:40:36;;;;;;;10.37;2.07;;;27.70;77.70;;;;;;5052214;28;20237;-71
2021/03/03 03:43:05;;;;;;;7.63;1.90;;;27.70;77.30;;;;;;5056092;28;20260;-71
2021/03/03 03:45:35;;;;;;;8.63;1.40;;;27.80;76.00;;;;;;5056125;28;20180;-70
2021/03/03 03:48:03;;;;;;;6.47;1.83;;;27.80;75.80;;;;;;5056287;28;20180;-69
2021/03/03 03:50:31;;;;;;;9.50;2.40;;;27.60;76.00;;;;;;5054418;28;20198;-71
2021/03/03 03:52:59;;;;;;;9.43;2.20;;;27.60;75.90;;;;;;5054512;28;20201;-70
2021/03/03 03:55:37;;;;;;;7.40;1.90;;;27.60;77.10;;;;;;5055241;28;20209;-70
2021/03/03 03:58:06;;;;;;;14.70;2.53;;;27.30;76.80;;;;;;5054918;28;20258;-70
2021/03/03 04:00:34;;;;;;;9.83;1.87;;;27.20;78.50;;;;;;5054665;28;20172;-71
2021/03/03 04:03:02;;;;;;;7.70;1.90;;;27.40;76.70;;;;;;5054407;28;20866;-70
2021/03/03 04:05:29;;;;;;;8.07;2.23;;;26.80;76.80;;;;;;5054772;28;20241;-70
2021/03/03 04:07:57;;;;;;;10.03;1.70;;;26.20;79.30;;;;;;5053805;28;20267;-72
2021/03/03 04:10:29;;;;;;;5.87;1.50;;;26.60;78.70;;;;;;5054915;28;20700;-72
2021/03/03 04:12:59;;;;;;;6.10;2.00;;;27.00;78.20;;;;;;5054881;28;20232;-70
2021/03/03 04:15:27;;;;;;;6.73;1.50;;;27.20;77.50;;;;;;5055482;28;20247;-71
2021/03/03 04:17:55;;;;;;;7.53;1.40;;;27.60;76.20;;;;;;5055227;28;20654;-71
2021/03/03 04:20:22;;;;;;;11.17;1.90;;;28.00;75.20;;;;;;5054097;28;20287;-70
2021/03/03 04:22:50;;;;;;;6.83;1.60;;;28.30;75.40;;;;;;5054892;28;20200;-71
2021/03/03 04:25:19;;;;;;;6.70;1.93;;;28.00;73.90;;;;;;5054939;28;20172;-70
2021/03/03 04:27:46;;;;;;;11.67;2.23;;;27.90;73.70;;;;;;5055239;28;20215;-70
2021/03/03 04:30:16;;;;;;;12.37;2.20;;;28.10;73.90;;;;;;5055025;28;20193;-70
2021/03/03 04:32:44;;;;;;;9.30;2.30;;;28.20;73.50;;;;;;5055046;28;20176;-70
2021/03/03 04:35:13;;;;;;;7.50;1.60;;;28.30;73.00;;;;;;5055312;28;20599;-71
2021/03/03 04:37:40;;;;;;;7.93;1.80;;;28.20;73.30;;;;;;5053996;28;20184;-71
2021/03/03 04:40:09;;;;;;;10.33;1.73;;;28.30;73.40;;;;;;5055138;28;20164;-72
2021/03/03 04:42:37;;;;;;;7.50;1.57;;;28.50;74.40;;;;;;5047634;28;20346;-71
2021/03/03 04:45:06;;;;;;;4.63;1.60;;;28.90;71.70;;;;;;5053941;28;20187;-72
2021/03/03 04:47:34;;;;;;;7.60;1.97;;;28.50;71.30;;;;;;5054412;28;20188;-71
2021/03/03 04:50:01;;;;;;;10.57;3.07;;;28.70;71.30;;;;;;5052909;28;20195;-69
2021/03/03 04:52:29;;;;;;;12.83;4.47;;;27.80;72.40;;;;;;5053155;28;20184;-69
2021/03/03 04:54:56;;;;;;;9.53;2.87;;;27.20;74.60;;;;;;5050310;28;20268;-67
2021/03/03 04:57:24;;;;;;;6.80;1.97;;;27.30;74.90;;;;;;5052608;28;20180;-69
2021/03/03 04:59:51;;;;;;;12.90;2.27;;;28.00;74.00;;;;;;5049487;28;20181;-69
2021/03/03 05:02:19;;;;;;;8.13;1.93;;;29.00;72.10;;;;;;5050951;28;20684;-68
2021/03/03 05:04:46;;;;;;;9.70;2.67;;;29.60;70.30;;;;;;5053189;28;20191;-68
2021/03/03 05:07:14;;;;;;;14.70;2.57;;;28.90;71.50;;;;;;5053104;28;20266;-70
2021/03/03 05:09:41;;;;;;;9.60;1.80;;;28.90;71.60;;;;;;5054967;28;20191;-70
2021/03/03 05:12:09;;;;;;;8.18;1.80;;;29.20;70.20;;;;;;5043583;28;20186;-69
2021/03/03 05:14:37;;;;;;;7.53;1.70;;;29.60;70.30;;;;;;5050112;28;20179;-68
2021/03/03 05:17:04;;;;;;;5.67;1.63;;;28.90;69.60;;;;;;5051010;28;20218;-68
2021/03/03 05:19:32;;;;;;;10.40;1.90;;;28.60;70.10;;;;;;5050607;28;20253;-70
2021/03/03 05:21:59;;;;;;;7.43;1.60;;;28.40;70.80;;;;;;5051701;28;20203;-70
2021/03/03 05:24:27;;;;;;;8.40;2.07;;;28.50;70.90;;;;;;5056999;28;20183;-70
2021/03/03 05:26:54;;;;;;;7.53;1.53;;;28.40;70.90;;;;;;5051912;28;20273;-71
2021/03/03 05:29:22;;;;;;;7.90;1.60;;;28.60;71.40;;;;;;5057921;28;20590;-69
2021/03/03 05:31:49;;;;;;;9.03;1.70;;;28.90;70.30;;;;;;5051663;28;20261;-68
2021/03/03 05:34:17;;;;;;;9.87;2.00;;;28.60;69.70;;;;;;5051357;28;20279;-71
2021/03/03 05:36:44;;;;;;;6.97;1.60;;;27.90;71.00;;;;;;5041281;28;20608;-70
2021/03/03 05:39:12;;;;;;;6.20;1.80;;;27.30;72.20;;;;;;5052942;28;20646;-69
2021/03/03 05:41:40;;;;;;;7.63;1.80;;;27.30;73.00;;;;;;5053587;28;20180;-69
2021/03/03 05:44:09;;;;;;;6.90;1.67;;;27.30;72.90;;;;;;5053140;28;20678;-70
2021/03/03 05:46:43;;;;;;;6.37;2.07;;;27.30;73.30;;;;;;5053916;28;20557;-69
2021/03/03 05:49:16;;;;;;;7.37;1.80;;;27.20;73.40;;;;;;5053132;28;20779;-69
2021/03/03 05:51:45;;;;;;;7.47;1.70;;;27.30;73.90;;;;;;5068956;28;20512;-71
2021/03/03 05:54:12;;;;;;;5.90;1.87;;;27.40;72.60;;;;;;5053241;28;20237;-71
2021/03/03 05:56:42;;;;;;;8.90;1.90;;;27.50;72.30;;;;;;5041369;28;20181;-69
2021/03/03 05:59:15;;;;;;;8.23;2.10;;;27.20;73.30;;;;;;5043740;28;20184;-68
2021/03/03 06:01:45;;;;;;;8.73;1.87;;;27.00;74.00;;;;;;5051246;28;20597;-68
2021/03/03 06:04:13;;;;;;;9.70;3.77;;;27.00;74.30;;;;;;5052871;28;20650;-69
2021/03/03 06:06:42;;;;;;;11.27;2.50;;;27.40;74.30;;;;;;5053034;28;20187;-70
2021/03/03 06:09:10;;;;;;;10.70;2.20;;;27.30;74.10;;;;;;5054198;28;20542;-70
2021/03/03 06:11:38;;;;;;;6.40;1.93;;;28.20;72.40;;;;;;5054115;28;20180;-70
2021/03/03 06:14:06;;;;;;;10.37;2.10;;;28.50;71.00;;;;;;5052287;28;20180;-70
2021/03/03 06:16:33;;;;;;;9.63;2.30;;;28.40;71.40;;;;;;5053668;28;20195;-70
2021/03/03 06:19:01;;;;;;;5.47;1.50;;;28.50;71.50;;;;;;5053863;28;20183;-71
2021/03/03 06:21:32;;;;;;;8.30;2.27;;;28.40;71.50;;;;;;5051498;28;20618;-70
2021/03/03 06:24:07;;;;;;;7.93;1.80;;;28.30;71.10;;;;;;5053319;28;20263;-70
2021/03/03 06:26:36;;;;;;;12.00;3.17;;;27.50;72.40;;;;;;5052692;28;20190;-70
2021/03/03 06:29:17;;;;;;;6.67;2.40;;;26.90;74.10;;;;;;5053913;28;20267;-70
2021/03/03 06:31:45;;;;;;;13.93;1.97;;;26.40;75.10;;;;;;5051354;28;20234;-71
2021/03/03 06:34:14;;;;;;;8.57;2.17;;;25.20;78.00;;;;;;5053445;28;20180;-70
2021/03/03 06:36:44;;;;;;;11.17;1.83;;;24.50;79.60;;;;;;5052454;28;20507;-70
2021/03/03 06:39:29;;;;;;;5.87;1.73;;;24.80;79.80;;;;;;5047202;28;20180;-70
2021/03/03 06:42:01;;;;;;;7.30;1.73;;;24.70;80.50;;;;;;5052167;28;20183;-69
2021/03/03 06:44:48;;;;;;;9.60;2.33;;;24.80;80.10;;;;;;5048040;28;20226;-69
2021/03/03 06:47:16;;;;;;;9.80;2.43;;;25.10;80.40;;;;;;5060785;28;20198;-70
2021/03/03 06:49:44;;;;;;;8.07;1.87;;;24.90;80.10;;;;;;5050913;28;20172;-70
2021/03/03 06:52:11;;;;;;;8.17;2.20;;;24.60;81.40;;;;;;5052613;28;20174;-71
2021/03/03 06:54:39;;;;;;;15.57;2.83;;;24.80;81.30;;;;;;5052337;28;20187;-71
2021/03/03 06:57:12;;;;;;;12.30;2.07;;;24.90;81.40;;;;;;5049172;28;20536;-70
2021/03/03 06:59:43;;;;;;;9.83;2.10;;;25.50;79.60;;;;;;5052549;28;20570;-69
2021/03/03 07:02:13;;;;;;;9.17;2.03;;;25.30;79.60;;;;;;5052861;28;20204;-71
2021/03/03 07:04:42;;;;;;;10.23;2.47;;;24.90;80.80;;;;;;5052377;28;20176;-71
2021/03/03 07:07:18;;;;;;;7.97;1.70;;;24.30;82.30;;;;;;5052492;28;20184;-69
2021/03/03 07:09:49;;;;;;;15.47;2.73;;;23.90;83.90;;;;;;5052308;28;20179;-69
2021/03/03 07:12:26;;;;;;;18.47;1.80;;;23.40;85.80;;;;;;5052081;28;20172;-68
2021/03/03 07:15:08;;;;;;;12.57;2.10;;;23.00;87.30;;;;;;5049429;28;20176;-68
2021/03/03 07:17:44;;;;;;;9.47;2.10;;;22.90;88.80;;;;;;5049351;28;20543;-69
2021/03/03 07:20:16;;;;;;;13.20;2.30;;;22.90;88.90;;;;;;5050017;28;20586;-69
2021/03/03 07:22:57;;;;;;;8.90;2.07;;;23.60;87.80;;;;;;5050714;28;20203;-69
2021/03/03 07:25:25;;;;;;;14.40;2.63;;;24.20;86.00;;;;;;5044184;28;20179;-69
2021/03/03 07:27:52;;;;;;;9.70;1.97;;;24.90;83.20;;;;;;5051325;28;20228;-70
2021/03/03 07:30:22;;;;;;;3.57;1.30;;;25.30;82.10;;;;;;5052328;28;20211;-70
2021/03/03 07:32:50;;;;;;;6.87;1.80;;;25.70;80.80;;;;;;5051915;28;20196;-69
2021/03/03 07:35:17;;;;;;;11.70;1.93;;;25.90;80.30;;;;;;5051152;28;20534;-70
2021/03/03 07:37:55;;;;;;;6.23;1.80;;;25.70;80.10;;;;;;5051276;28;20194;-70
2021/03/03 07:40:27;;;;;;;10.97;1.87;;;25.40;81.40;;;;;;5051260;28;20175;-68
2021/03/03 07:43:02;;;;;;;10.57;2.20;;;25.00;81.80;;;;;;5051649;28;20697;-69
2021/03/03 07:45:36;;;;;;;13.13;2.13;;;24.80;83.10;;;;;;5052270;28;20179;-70
2021/03/03 07:48:07;;;;;;;11.07;2.33;;;24.50;84.10;;;;;;5051881;28;20176;-69
2021/03/03 07:50:35;;;;;;;8.63;2.00;;;24.10;84.50;;;;;;5049810;28;20168;-69
2021/03/03 07:53:02;;;;;;;14.73;2.37;;;23.60;85.60;;;;;;5051059;28;20187;-69
2021/03/03 07:55:33;;;;;;;10.73;2.07;;;23.40;86.20;;;;;;5040039;28;20195;-68
2021/03/03 07:58:01;;;;;;;9.40;1.73;;;23.20;87.30;;;;;;5052040;28;20172;-69
2021/03/03 08:00:33;;;;;;;9.83;2.23;;;22.90;88.30;;;;;;5051699;28;20184;-69
2021/03/03 08:03:00;;;;;;;11.60;3.43;;;22.70;89.10;;;;;;5047691;28;20250;-70
2021/03/03 08:05:40;;;;;;;10.23;2.53;;;22.40;89.80;;;;;;5051751;28;20565;-70
2021/03/03 08:08:23;;;;;;;9.33;2.10;;;22.40;90.20;;;;;;5050481;28;20261;-67
2021/03/03 08:11:10;;;;;;;12.50;2.13;;;22.20;90.40;;;;;;5038447;28;20265;-68
2021/03/03 08:13:39;;;;;;;10.53;2.10;;;22.00;90.70;;;;;;5051371;28;20657;-70
2021/03/03 08:16:09;;;;;;;8.37;2.20;;;21.80;91.10;;;;;;5051955;28;20191;-70
2021/03/03 08:18:50;;;;;;;12.00;2.80;;;21.70;91.50;;;;;;5051641;28;20165;-67
2021/03/03 08:21:17;;;;;;;9.70;2.67;;;21.70;91.30;;;;;;5050506;28;20187;-69
2021/03/03 08:23:47;;;;;;;10.37;2.17;;;21.60;91.40;;;;;;5051308;28;20314;-69
2021/03/03 08:26:17;;;;;;;9.00;2.30;;;21.60;91.50;;;;;;5044609;28;20184;-69
2021/03/03 08:28:52;;;;;;;8.50;2.00;;;21.60;91.90;;;;;;5053272;28;20219;-69
2021/03/03 08:31:24;;;;;;;12.70;2.63;;;21.50;91.90;;;;;;5074357;28;20174;-69
2021/03/03 08:33:52;;;;;;;6.23;2.20;;;21.50;92.20;;;;;;5072332;28;20516;-68
2021/03/03 08:36:25;;;;;;;9.63;2.17;;;21.40;92.20;;;;;;5063074;28;20187;-68
2021/03/03 08:38:55;;;;;;;13.73;2.50;;;21.30;92.40;;;;;;5065713;28;20207;-70
2021/03/03 08:41:26;;;;;;;7.23;2.37;;;21.20;92.40;;;;;;5070560;28;20189;-69
2021/03/03 08:44:12;;;;;;;9.63;2.47;;;21.30;92.50;;;;;;5055612;28;20219;-70
2021/03/03 08:46:39;;;;;;;4.97;1.67;;;21.20;92.90;;;;;;5073083;28;20179;-70
2021/03/03 08:49:07;;;;;;;7.67;2.03;;;21.10;93.00;;;;;;5074765;28;20210;-69
2021/03/03 08:51:42;;;;;;;12.13;2.40;;;21.10;93.20;;;;;;5058352;28;20270;-68
2021/03/03 08:54:09;;;;;;;11.30;3.40;;;21.20;93.60;;;;;;5065450;28;20186;-69
2021/03/03 08:56:54;;;;;;;9.33;2.77;;;21.30;93.50;;;;;;5061593;28;20188;-69
2021/03/03 08:59:30;;;;;;;6.60;2.43;;;21.30;93.80;;;;;;5064034;28;20326;-69
2021/03/03 09:02:17;;;;;;;11.30;2.57;;;21.20;94.10;;;;;;5057593;28;20601;-69
2021/03/03 09:04:47;;;;;;;8.10;2.70;;;21.10;94.50;;;;;;5068149;28;20557;-68
2021/03/03 09:07:24;;;;;;;10.17;2.50;;;21.10;94.70;;;;;;5058639;28;20184;-69
2021/03/03 09:09:53;;;;;;;7.40;2.40;;;21.10;95.00;;;;;;5055544;28;20187;-70
2021/03/03 09:12:31;;;;;;;11.40;3.20;;;21.00;95.40;;;;;;5052832;28;20187;-69
2021/03/03 09:15:03;;;;;;;8.07;2.50;;;21.00;95.50;;;;;;5054520;28;20280;-68
2021/03/03 09:17:34;;;;;;;12.63;3.33;;;21.00;95.70;;;;;;5053811;28;20633;-68
2021/03/03 09:20:16;;;;;;;12.93;2.43;;;21.00;95.70;;;;;;5049401;28;20183;-67
2021/03/03 09:22:46;;;;;;;12.00;2.70;;;20.90;96.00;;;;;;5054048;28;20223;-69
2021/03/03 09:25:21;;;;;;;12.60;2.77;;;20.80;96.10;;;;;;5054290;28;20187;-69
2021/03/03 09:27:49;;;;;;;9.93;2.00;;;20.80;96.30;;;;;;5053793;28;20310;-70
2021/03/03 09:30:17;;;;;;;12.67;2.70;;;20.80;96.30;;;;;;5053869;28;20229;-68
2021/03/03 09:32:46;;;;;;;8.17;2.03;;;20.70;96.40;;;;;;5053906;28;20226;-68
2021/03/03 09:35:14;;;;;;;7.47;2.10;;;20.70;96.50;;;;;;5040107;28;20184;-69
2021/03/03 09:37:43;;;;;;;10.33;2.03;;;20.70;96.50;;;;;;5053587;28;20245;-68
2021/03/03 09:40:16;;;;;;;10.53;1.97;;;20.70;96.60;;;;;;5053783;28;20310;-68
2021/03/03 09:42:48;;;;;;;6.30;1.70;;;20.70;96.60;;;;;;5053137;28;20295;-70
2021/03/03 09:45:23;;;;;;;11.03;1.70;;;20.60;96.70;;;;;;5052984;28;20230;-68
2021/03/03 09:47:51;;;;;;;8.40;1.97;;;20.60;96.90;;;;;;5052978;28;20176;-68
2021/03/03 09:50:21;;;;;;;9.67;2.07;;;20.60;96.90;;;;;;5060874;28;20176;-69
2021/03/03 09:52:54;;;;;;;9.27;2.13;;;20.70;96.80;;;;;;5051534;28;20188;-70
2021/03/03 09:55:27;;;;;;;7.27;1.77;;;20.70;96.90;;;;;;5053873;28;20207;-69
2021/03/03 09:57:56;;;;;;;7.93;2.37;;;20.60;97.40;;;;;;5049081;28;20594;-70
2021/03/03 10:00:25;;;;;;;8.93;2.43;;;20.60;97.20;;;;;;5053605;28;20175;-70
2021/03/03 10:02:59;;;;;;;9.40;1.87;;;20.60;97.20;;;;;;5053045;28;20607;-70
2021/03/03 10:05:29;;;;;;;5.67;1.90;;;20.60;97.20;;;;;;5053564;28;20654;-70
2021/03/03 10:08:01;;;;;;;9.53;2.03;;;20.60;97.10;;;;;;5051851;28;20180;-71
2021/03/03 10:10:33;;;;;;;10.53;2.43;;;20.60;97.00;;;;;;5053339;28;20187;-70
2021/03/03 10:13:00;;;;;;;8.93;2.30;;;20.60;97.00;;;;;;5053399;28;20172;-69
2021/03/03 10:15:38;;;;;;;7.57;2.27;;;20.60;97.00;;;;;;5050702;28;20666;-70
2021/03/03 10:18:12;;;;;;;8.77;1.90;;;20.60;96.90;;;;;;5051095;28;20180;-70
2021/03/03 10:20:41;;;;;;;8.50;1.60;;;20.50;96.80;;;;;;5052048;28;20258;-70
2021/03/03 10:23:09;;;;;;;5.30;1.63;;;20.50;96.70;;;;;;5053355;28;20210;-69
2021/03/03 10:25:38;;;;;;;3.83;1.40;;;20.50;96.80;;;;;;5052246;28;20670;-70
2021/03/03 10:28:11;;;;;;;10.03;2.03;;;20.40;96.70;;;;;;5053152;28;20234;-69
2021/03/03 10:30:40;;;;;;;6.07;1.93;;;20.50;96.50;;;;;;5053076;28;20673;-69
2021/03/03 10:33:09;;;;;;;13.53;2.40;;;20.40;96.60;;;;;;5045866;28;20199;-69
2021/03/03 10:35:50;;;;;;;8.00;1.53;;;20.40;96.60;;;;;;5050566;28;20180;-68
2021/03/03 10:38:20;;;;;;;11.47;2.10;;;20.40;96.70;;;;;;5051457;28;20180;-68
2021/03/03 10:40:49;;;;;;;5.37;1.80;;;20.40;96.50;;;;;;5052348;28;20176;-69
2021/03/03 10:43:19;;;;;;;11.67;2.07;;;20.40;96.70;;;;;;5048546;28;20216;-68
2021/03/03 10:45:48;;;;;;;8.27;2.53;;;20.40;97.20;;;;;;5052609;28;20223;-68
2021/03/03 10:48:30;;;;;;;12.20;2.50;;;20.40;97.70;;;;;;5050831;28;20322;-68
2021/03/03 10:51:02;;;;;;;10.37;1.77;;;20.30;98.10;;;;;;5051394;28;20515;-67
2021/03/03 10:54:05;;;;;;;8.17;2.27;;;20.30;98.30;;;;;;5039383;28;20188;-67
2021/03/03 10:56:41;;;;;;;12.57;2.10;;;20.30;98.60;;;;;;4991566;28;20185;-68
2021/03/03 10:59:30;;;;;;;12.10;1.90;;;20.30;98.70;;;;;;5046576;28;20191;-67
2021/03/03 11:02:01;;;;;;;11.20;2.30;;;20.20;98.80;;;;;;5055668;28;20222;-68
2021/03/03 11:04:42;;;;;;;14.50;2.20;;;20.10;99.00;;;;;;5062975;28;20225;-70
2021/03/03 11:07:11;;;;;;;12.70;2.33;;;20.10;98.90;;;;;;5059927;28;20190;-69
2021/03/03 11:09:39;;;;;;;12.07;2.43;;;20.10;98.80;;;;;;5058110;28;20188;-68
2021/03/03 11:12:08;;;;;;;8.23;2.17;;;20.10;98.70;;;;;;5048627;28;20185;-68
2021/03/03 11:14:36;;;;;;;13.47;2.30;;;20.20;98.70;;;;;;5051402;28;20656;-68
2021/03/03 11:17:05;;;;;;;9.23;1.80;;;20.20;98.70;;;;;;5046395;28;20188;-69
2021/03/03 11:19:33;;;;;;;8.93;1.80;;;20.20;98.60;;;;;;5040775;28;20622;-69
2021/03/03 11:22:00;;;;;;;9.73;1.80;;;20.40;98.50;;;;;;5046268;28;20288;-68
2021/03/03 11:24:27;;;;;;;8.63;1.73;;;20.40;98.10;;;;;;5052279;28;20194;-68
2021/03/03 11:26:55;;;;;;;11.80;2.13;;;20.50;98.00;;;;;;5051492;28;20633;-70
2021/03/03 11:29:22;;;;;;;20.10;2.53;;;20.50;98.20;;;;;;5051994;28;20270;-68
2021/03/03 11:31:49;;;;;;;8.83;2.10;;;20.50;98.40;;;;;;5047095;28;20233;-69
2021/03/03 11:34:17;;;;;;;7.47;2.80;;;20.40;98.50;;;;;;5049493;28;20179;-70
2021/03/03 11:36:44;;;;;;;11.83;2.33;;;20.40;98.70;;;;;;5048406;28;20176;-70
2021/03/03 11:39:12;;;;;;;21.17;3.03;;;20.40;98.60;;;;;;5051964;28;20195;-70
2021/03/03 11:41:39;;;;;;;5.43;1.60;;;20.40;98.70;;;;;;5052024;28;20263;-69
2021/03/03 11:44:07;;;;;;;10.87;2.30;;;20.30;98.80;;;;;;5052546;28;20322;-70
2021/03/03 11:46:35;;;;;;;9.10;1.90;;;20.30;98.90;;;;;;5052790;28;20176;-68
2021/03/03 11:49:03;;;;;;;11.80;2.37;;;20.30;99.00;;;;;;5051107;28;20199;-70
2021/03/03 11:51:30;;;;;;;6.77;1.67;;;20.20;99.10;;;;;;5049102;28;20184;-70
2021/03/03 11:53:57;;;;;;;9.13;1.73;;;20.10;99.40;;;;;;5051412;28;20176;-69
2021/03/03 11:56:25;;;;;;;6.33;1.70;;;20.00;99.70;;;;;;5054837;28;20218;-69
2021/03/03 11:58:52;;;;;;;10.30;2.17;;;19.90;99.90;;;;;;5052769;28;20575;-71
2021/03/03 12:01:20;;;;;;;12.93;2.13;;;20.00;99.90;;;;;;5052559;28;20183;-69
2021/03/03 12:03:47;;;;;;;9.77;2.50;;;19.90;99.90;;;;;;5042859;28;20239;-71
2021/03/03 12:06:15;;;;;;;7.77;1.50;;;19.90;99.90;;;;;;5055472;28;20702;-70
2021/03/03 12:08:42;;;;;;;11.73;1.90;;;19.90;99.90;;;;;;5054380;28;20168;-72
2021/03/03 12:11:10;;;;;;;10.43;2.60;;;19.80;99.90;;;;;;5055503;28;20183;-71
2021/03/03 12:13:37;;;;;;;12.47;2.57;;;19.80;99.90;;;;;;5055520;28;20180;-71
2021/03/03 12:16:04;;;;;;;10.20;1.80;;;19.80;99.90;;;;;;5055613;28;20187;-68
2021/03/03 12:18:32;;;;;;;15.20;2.20;;;19.80;99.90;;;;;;5054810;28;20718;-68
2021/03/03 12:21:00;;;;;;;11.83;1.90;;;19.70;99.90;;;;;;5054062;28;20263;-68
2021/03/03 12:23:28;;;;;;;7.57;2.33;;;19.70;99.90;;;;;;5054904;28;20211;-68
2021/03/03 12:25:55;;;;;;;7.70;1.80;;;19.70;99.90;;;;;;5054963;28;20883;-69
2021/03/03 12:28:23;;;;;;;9.60;2.03;;;19.70;99.90;;;;;;5054927;28;20230;-68
2021/03/03 12:30:50;;;;;;;7.33;1.93;;;19.70;99.90;;;;;;5054762;28;20199;-69
2021/03/03 12:33:18;;;;;;;14.37;2.50;;;19.70;99.90;;;;;;5051776;28;20195;-69
2021/03/03 12:35:46;;;;;;;5.80;2.00;;;19.60;99.90;;;;;;5054914;28;20184;-68
2021/03/03 12:38:13;;;;;;;7.73;1.47;;;19.60;99.90;;;;;;5050620;28;20219;-69
2021/03/03 12:40:42;;;;;;;11.43;2.10;;;19.70;99.90;;;;;;5053479;28;20184;-68
2021/03/03 12:43:09;;;;;;;6.73;2.00;;;19.70;99.90;;;;;;5054659;28;20220;-69
2021/03/03 12:45:37;;;;;;;11.37;2.00;;;19.60;99.90;;;;;;5055056;28;20654;-68
2021/03/03 12:48:05;;;;;;;9.63;2.27;;;19.60;99.90;;;;;;5054719;28;20233;-68
2021/03/03 12:50:33;;;;;;;11.23;1.83;;;19.70;99.90;;;;;;5053715;28;20171;-68
2021/03/03 12:53:00;;;;;;;7.50;1.93;;;19.60;99.90;;;;;;5054506;28;20191;-69
2021/03/03 12:55:27;;;;;;;12.93;2.40;;;19.60;99.90;;;;;;5054919;28;20210;-69
2021/03/03 12:57:55;;;;;;;5.50;1.90;;;19.70;99.90;;;;;;5051876;28;20216;-67